sensor_id;sensor_type;location;lat;lon;timestamp;P1;durP1;ratioP1;P2;durP2;ratioP2
77085;SDS011;66014;53.134;18.006;2023-02-28T00:01:27;139.40;;;56.20;;
77085;SDS011;66014;53.134;18.006;2023-02-28T00:03:54;142.90;;;66.50;;
77085;SDS011;66014;53.134;18.006;2023-02-28T00:06:21;145.10;;;60.40;;
77085;SDS011;66014;53.134;18.006;2023-02-28T00:08:48;133.80;;;54.20;;
77085;SDS011;66014;53.134;18.006;2023-02-28T00:11:15;129.70;;;51.00;;
77085;SDS011;66014;53.134;18.006;2023-02-28T00:13:44;127.80;;;52.90;;
77085;SDS011;66014;53.134;18.006;2023-02-28T00:16:19;118.40;;;47.20;;
77085;SDS011;66014;53.134;18.006;2023-02-28T00:18:47;101.70;;;40.00;;
77085;SDS011;66014;53.134;18.006;2023-02-28T00:21:15;109.40;;;38.90;;
77085;SDS011;66014;53.134;18.006;2023-02-28T00:23:43;101.10;;;38.70;;
77085;SDS011;66014;53.134;18.006;2023-02-28T00:26:10;121.60;;;48.60;;
77085;SDS011;66014;53.134;18.006;2023-02-28T00:28:36;119.00;;;45.90;;
77085;SDS011;66014;53.134;18.006;2023-02-28T00:31:03;108.40;;;43.20;;
77085;SDS011;66014;53.134;18.006;2023-02-28T00:33:30;115.80;;;44.20;;
77085;SDS011;66014;53.134;18.006;2023-02-28T00:36:03;123.20;;;44.60;;
77085;SDS011;66014;53.134;18.006;2023-02-28T00:38:34;114.70;;;45.80;;
77085;SDS011;66014;53.134;18.006;2023-02-28T00:41:01;127.50;;;48.00;;
77085;SDS011;66014;53.134;18.006;2023-02-28T00:43:31;109.20;;;42.90;;
77085;SDS011;66014;53.134;18.006;2023-02-28T00:45:59;114.80;;;42.00;;
77085;SDS011;66014;53.134;18.006;2023-02-28T00:48:26;111.10;;;45.70;;
77085;SDS011;66014;53.134;18.006;2023-02-28T00:50:53;115.00;;;41.90;;
77085;SDS011;66014;53.134;18.006;2023-02-28T00:53:20;120.60;;;48.00;;
77085;SDS011;66014;53.134;18.006;2023-02-28T00:55:48;121.20;;;52.40;;
77085;SDS011;66014;53.134;18.006;2023-02-28T00:58:18;122.00;;;51.60;;
77085;SDS011;66014;53.134;18.006;2023-02-28T01:00:45;121.30;;;50.40;;
77085;SDS011;66014;53.134;18.006;2023-02-28T01:03:16;117.90;;;47.80;;
77085;SDS011;66014;53.134;18.006;2023-02-28T01:05:44;102.50;;;45.50;;
77085;SDS011;66014;53.134;18.006;2023-02-28T01:08:11;116.10;;;47.20;;
77085;SDS011;66014;53.134;18.006;2023-02-28T01:10:40;109.60;;;48.60;;
77085;SDS011;66014;53.134;18.006;2023-02-28T01:13:07;104.50;;;47.10;;
77085;SDS011;66014;53.134;18.006;2023-02-28T01:15:34;113.10;;;45.60;;
77085;SDS011;66014;53.134;18.006;2023-02-28T01:18:01;106.40;;;43.50;;
77085;SDS011;66014;53.134;18.006;2023-02-28T01:20:27;93.50;;;44.20;;
77085;SDS011;66014;53.134;18.006;2023-02-28T01:22:54;102.40;;;42.10;;
77085;SDS011;66014;53.134;18.006;2023-02-28T01:25:20;91.90;;;41.10;;
77085;SDS011;66014;53.134;18.006;2023-02-28T01:27:47;106.50;;;44.10;;
77085;SDS011;66014;53.134;18.006;2023-02-28T01:30:14;100.50;;;45.90;;
77085;SDS011;66014;53.134;18.006;2023-02-28T01:32:40;102.40;;;45.40;;
77085;SDS011;66014;53.134;18.006;2023-02-28T01:35:08;104.20;;;42.80;;
77085;SDS011;66014;53.134;18.006;2023-02-28T01:37:35;96.20;;;40.60;;
77085;SDS011;66014;53.134;18.006;2023-02-28T01:40:02;95.50;;;44.90;;
77085;SDS011;66014;53.134;18.006;2023-02-28T01:42:30;89.60;;;39.60;;
77085;SDS011;66014;53.134;18.006;2023-02-28T01:47:36;87.10;;;40.20;;
77085;SDS011;66014;53.134;18.006;2023-02-28T01:50:08;82.90;;;37.10;;
77085;SDS011;66014;53.134;18.006;2023-02-28T01:52:38;93.10;;;40.40;;
77085;SDS011;66014;53.134;18.006;2023-02-28T01:55:05;87.90;;;37.00;;
77085;SDS011;66014;53.134;18.006;2023-02-28T01:57:38;88.60;;;39.20;;
77085;SDS011;66014;53.134;18.006;2023-02-28T02:00:10;67.70;;;29.10;;
77085;SDS011;66014;53.134;18.006;2023-02-28T02:02:44;68.10;;;29.10;;
77085;SDS011;66014;53.134;18.006;2023-02-28T02:07:48;72.70;;;31.00;;
77085;SDS011;66014;53.134;18.006;2023-02-28T02:10:19;71.70;;;32.00;;
77085;SDS011;66014;53.134;18.006;2023-02-28T02:18:05;61.30;;;26.40;;
77085;SDS011;66014;53.134;18.006;2023-02-28T02:29:40;63.80;;;27.30;;
77085;SDS011;66014;53.134;18.006;2023-02-28T02:38:24;53.00;;;20.80;;
77085;SDS011;66014;53.134;18.006;2023-02-28T02:41:16;53.10;;;22.40;;
77085;SDS011;66014;53.134;18.006;2023-02-28T02:43:52;56.30;;;22.80;;
77085;SDS011;66014;53.134;18.006;2023-02-28T02:46:25;51.60;;;21.90;;
77085;SDS011;66014;53.134;18.006;2023-02-28T02:48:56;71.20;;;31.60;;
77085;SDS011;66014;53.134;18.006;2023-02-28T02:51:27;54.60;;;23.90;;
77085;SDS011;66014;53.134;18.006;2023-02-28T02:53:58;51.50;;;23.80;;
77085;SDS011;66014;53.134;18.006;2023-02-28T02:59:02;47.40;;;18.70;;
77085;SDS011;66014;53.134;18.006;2023-02-28T03:01:33;44.80;;;18.90;;
77085;SDS011;66014;53.134;18.006;2023-02-28T03:04:03;35.30;;;16.70;;
77085;SDS011;66014;53.134;18.006;2023-02-28T03:06:33;54.00;;;20.10;;
77085;SDS011;66014;53.134;18.006;2023-02-28T03:09:02;51.40;;;19.80;;
77085;SDS011;66014;53.134;18.006;2023-02-28T03:11:34;48.20;;;20.60;;
77085;SDS011;66014;53.134;18.006;2023-02-28T03:14:16;46.10;;;18.60;;
77085;SDS011;66014;53.134;18.006;2023-02-28T03:19:43;45.00;;;18.90;;
77085;SDS011;66014;53.134;18.006;2023-02-28T03:27:45;44.30;;;18.00;;
77085;SDS011;66014;53.134;18.006;2023-02-28T03:31:12;43.20;;;17.60;;
77085;SDS011;66014;53.134;18.006;2023-02-28T03:33:26;103.80;;;49.00;;
77085;SDS011;66014;53.134;18.006;2023-02-28T03:36:18;50.00;;;20.90;;
77085;SDS011;66014;53.134;18.006;2023-02-28T03:38:51;44.50;;;17.80;;
77085;SDS011;66014;53.134;18.006;2023-02-28T03:41:23;65.20;;;23.10;;
77085;SDS011;66014;53.134;18.006;2023-02-28T03:43:58;74.70;;;27.30;;
77085;SDS011;66014;53.134;18.006;2023-02-28T03:46:33;68.10;;;25.50;;
77085;SDS011;66014;53.134;18.006;2023-02-28T03:49:15;55.50;;;21.20;;
77085;SDS011;66014;53.134;18.006;2023-02-28T03:51:48;42.50;;;18.60;;
77085;SDS011;66014;53.134;18.006;2023-02-28T03:54:34;46.90;;;19.00;;
77085;SDS011;66014;53.134;18.006;2023-02-28T03:59:45;49.50;;;19.60;;
77085;SDS011;66014;53.134;18.006;2023-02-28T04:02:16;49.10;;;19.40;;
77085;SDS011;66014;53.134;18.006;2023-02-28T04:04:42;46.90;;;19.00;;
77085;SDS011;66014;53.134;18.006;2023-02-28T04:07:11;58.10;;;22.20;;
77085;SDS011;66014;53.134;18.006;2023-02-28T04:09:47;65.80;;;24.30;;
77085;SDS011;66014;53.134;18.006;2023-02-28T04:12:20;70.00;;;25.80;;
77085;SDS011;66014;53.134;18.006;2023-02-28T04:14:49;69.10;;;24.50;;
77085;SDS011;66014;53.134;18.006;2023-02-28T04:19:47;47.50;;;20.40;;
77085;SDS011;66014;53.134;18.006;2023-02-28T04:22:13;47.10;;;17.70;;
77085;SDS011;66014;53.134;18.006;2023-02-28T04:24:40;44.50;;;17.30;;
77085;SDS011;66014;53.134;18.006;2023-02-28T04:27:08;47.90;;;19.30;;
77085;SDS011;66014;53.134;18.006;2023-02-28T04:29:34;47.40;;;20.60;;
77085;SDS011;66014;53.134;18.006;2023-02-28T04:32:03;40.70;;;17.00;;
77085;SDS011;66014;53.134;18.006;2023-02-28T04:34:56;52.40;;;19.80;;
77085;SDS011;66014;53.134;18.006;2023-02-28T04:37:24;59.50;;;23.40;;
77085;SDS011;66014;53.134;18.006;2023-02-28T04:40:00;140.80;;;54.20;;
77085;SDS011;66014;53.134;18.006;2023-02-28T04:42:50;86.60;;;34.30;;
77085;SDS011;66014;53.134;18.006;2023-02-28T04:45:20;67.30;;;24.50;;
77085;SDS011;66014;53.134;18.006;2023-02-28T04:48:07;51.50;;;20.00;;
77085;SDS011;66014;53.134;18.006;2023-02-28T04:50:49;37.40;;;15.40;;
77085;SDS011;66014;53.134;18.006;2023-02-28T04:53:36;39.40;;;14.50;;
77085;SDS011;66014;53.134;18.006;2023-02-28T04:56:17;27.80;;;11.70;;
77085;SDS011;66014;53.134;18.006;2023-02-28T04:58:44;32.30;;;12.30;;
77085;SDS011;66014;53.134;18.006;2023-02-28T05:01:45;40.90;;;14.20;;
77085;SDS011;66014;53.134;18.006;2023-02-28T05:04:04;37.40;;;15.60;;
77085;SDS011;66014;53.134;18.006;2023-02-28T05:06:31;37.30;;;18.40;;
77085;SDS011;66014;53.134;18.006;2023-02-28T05:09:00;53.80;;;20.40;;
77085;SDS011;66014;53.134;18.006;2023-02-28T05:11:28;49.70;;;21.90;;
77085;SDS011;66014;53.134;18.006;2023-02-28T05:14:04;69.00;;;28.80;;
77085;SDS011;66014;53.134;18.006;2023-02-28T05:16:33;53.30;;;22.20;;
77085;SDS011;66014;53.134;18.006;2023-02-28T05:19:00;51.60;;;22.20;;
77085;SDS011;66014;53.134;18.006;2023-02-28T05:21:41;53.00;;;21.40;;
77085;SDS011;66014;53.134;18.006;2023-02-28T05:24:16;48.10;;;21.20;;
77085;SDS011;66014;53.134;18.006;2023-02-28T05:26:50;44.80;;;20.00;;
77085;SDS011;66014;53.134;18.006;2023-02-28T05:29:23;47.00;;;18.30;;
77085;SDS011;66014;53.134;18.006;2023-02-28T05:31:50;48.40;;;19.00;;
77085;SDS011;66014;53.134;18.006;2023-02-28T05:34:16;40.60;;;16.80;;
77085;SDS011;66014;53.134;18.006;2023-02-28T05:36:43;46.50;;;19.90;;
77085;SDS011;66014;53.134;18.006;2023-02-28T05:39:10;48.00;;;18.90;;
77085;SDS011;66014;53.134;18.006;2023-02-28T05:41:42;49.50;;;21.60;;
77085;SDS011;66014;53.134;18.006;2023-02-28T05:44:09;55.70;;;22.80;;
77085;SDS011;66014;53.134;18.006;2023-02-28T05:46:36;73.30;;;28.60;;
77085;SDS011;66014;53.134;18.006;2023-02-28T05:49:03;68.40;;;27.00;;
77085;SDS011;66014;53.134;18.006;2023-02-28T05:51:30;67.60;;;27.80;;
77085;SDS011;66014;53.134;18.006;2023-02-28T05:54:00;70.60;;;31.00;;
77085;SDS011;66014;53.134;18.006;2023-02-28T05:56:27;70.30;;;28.30;;
77085;SDS011;66014;53.134;18.006;2023-02-28T05:58:54;63.70;;;27.50;;
77085;SDS011;66014;53.134;18.006;2023-02-28T06:04:06;81.40;;;34.00;;
77085;SDS011;66014;53.134;18.006;2023-02-28T06:06:35;78.60;;;32.30;;
77085;SDS011;66014;53.134;18.006;2023-02-28T06:09:03;80.20;;;33.70;;
77085;SDS011;66014;53.134;18.006;2023-02-28T06:11:32;97.10;;;38.40;;
77085;SDS011;66014;53.134;18.006;2023-02-28T06:13:59;107.80;;;40.70;;
77085;SDS011;66014;53.134;18.006;2023-02-28T06:16:28;95.80;;;37.60;;
77085;SDS011;66014;53.134;18.006;2023-02-28T06:18:57;81.60;;;33.80;;
77085;SDS011;66014;53.134;18.006;2023-02-28T06:21:24;74.80;;;32.80;;
77085;SDS011;66014;53.134;18.006;2023-02-28T06:23:54;72.10;;;30.40;;
77085;SDS011;66014;53.134;18.006;2023-02-28T06:26:22;80.00;;;36.80;;
77085;SDS011;66014;53.134;18.006;2023-02-28T06:28:49;79.50;;;34.80;;
77085;SDS011;66014;53.134;18.006;2023-02-28T06:31:17;97.80;;;40.70;;
77085;SDS011;66014;53.134;18.006;2023-02-28T06:33:48;80.10;;;38.60;;
77085;SDS011;66014;53.134;18.006;2023-02-28T06:36:16;76.00;;;33.40;;
77085;SDS011;66014;53.134;18.006;2023-02-28T06:38:43;74.00;;;32.70;;
77085;SDS011;66014;53.134;18.006;2023-02-28T06:41:11;76.40;;;33.90;;
77085;SDS011;66014;53.134;18.006;2023-02-28T06:43:38;81.60;;;35.50;;
77085;SDS011;66014;53.134;18.006;2023-02-28T06:46:11;83.90;;;35.40;;
77085;SDS011;66014;53.134;18.006;2023-02-28T06:48:45;95.40;;;37.50;;
77085;SDS011;66014;53.134;18.006;2023-02-28T06:51:17;91.00;;;35.70;;
77085;SDS011;66014;53.134;18.006;2023-02-28T06:53:55;106.60;;;39.60;;
77085;SDS011;66014;53.134;18.006;2023-02-28T06:56:21;125.70;;;45.70;;
77085;SDS011;66014;53.134;18.006;2023-02-28T06:58:49;117.70;;;43.00;;
77085;SDS011;66014;53.134;18.006;2023-02-28T07:01:19;112.50;;;43.10;;
77085;SDS011;66014;53.134;18.006;2023-02-28T07:03:50;109.20;;;43.60;;
77085;SDS011;66014;53.134;18.006;2023-02-28T07:06:19;87.70;;;40.50;;
77085;SDS011;66014;53.134;18.006;2023-02-28T07:08:51;85.00;;;41.30;;
77085;SDS011;66014;53.134;18.006;2023-02-28T07:11:25;103.60;;;47.40;;
77085;SDS011;66014;53.134;18.006;2023-02-28T07:14:11;126.50;;;58.70;;
77085;SDS011;66014;53.134;18.006;2023-02-28T07:16:38;116.40;;;52.50;;
77085;SDS011;66014;53.134;18.006;2023-02-28T07:19:05;129.10;;;55.80;;
77085;SDS011;66014;53.134;18.006;2023-02-28T07:21:31;109.00;;;47.50;;
77085;SDS011;66014;53.134;18.006;2023-02-28T07:23:58;120.10;;;52.10;;
77085;SDS011;66014;53.134;18.006;2023-02-28T07:26:24;112.10;;;44.80;;
77085;SDS011;66014;53.134;18.006;2023-02-28T07:28:51;108.40;;;45.20;;
77085;SDS011;66014;53.134;18.006;2023-02-28T07:31:17;95.40;;;39.50;;
77085;SDS011;66014;53.134;18.006;2023-02-28T07:33:44;113.70;;;45.60;;
77085;SDS011;66014;53.134;18.006;2023-02-28T07:36:13;117.20;;;50.50;;
77085;SDS011;66014;53.134;18.006;2023-02-28T07:38:45;109.30;;;46.00;;
77085;SDS011;66014;53.134;18.006;2023-02-28T07:41:16;93.40;;;43.50;;
77085;SDS011;66014;53.134;18.006;2023-02-28T07:43:45;99.80;;;43.70;;
77085;SDS011;66014;53.134;18.006;2023-02-28T07:46:13;97.10;;;43.80;;
77085;SDS011;66014;53.134;18.006;2023-02-28T07:48:41;116.40;;;57.60;;
77085;SDS011;66014;53.134;18.006;2023-02-28T07:51:08;112.60;;;55.30;;
77085;SDS011;66014;53.134;18.006;2023-02-28T07:53:36;89.20;;;45.10;;
77085;SDS011;66014;53.134;18.006;2023-02-28T07:56:03;54.00;;;29.50;;
77085;SDS011;66014;53.134;18.006;2023-02-28T07:58:30;67.00;;;39.70;;
77085;SDS011;66014;53.134;18.006;2023-02-28T08:00:57;46.00;;;23.60;;
77085;SDS011;66014;53.134;18.006;2023-02-28T08:03:33;38.70;;;20.40;;
77085;SDS011;66014;53.134;18.006;2023-02-28T08:06:02;43.70;;;21.90;;
77085;SDS011;66014;53.134;18.006;2023-02-28T08:08:30;41.70;;;22.60;;
77085;SDS011;66014;53.134;18.006;2023-02-28T08:11:00;45.10;;;22.00;;
77085;SDS011;66014;53.134;18.006;2023-02-28T08:13:29;58.50;;;31.90;;
77085;SDS011;66014;53.134;18.006;2023-02-28T08:15:57;59.20;;;32.30;;
77085;SDS011;66014;53.134;18.006;2023-02-28T08:18:23;61.20;;;37.60;;
77085;SDS011;66014;53.134;18.006;2023-02-28T08:20:50;38.90;;;22.50;;
77085;SDS011;66014;53.134;18.006;2023-02-28T08:23:17;40.90;;;22.30;;
77085;SDS011;66014;53.134;18.006;2023-02-28T08:25:52;35.10;;;20.00;;
77085;SDS011;66014;53.134;18.006;2023-02-28T08:28:19;33.10;;;19.30;;
77085;SDS011;66014;53.134;18.006;2023-02-28T08:30:46;36.20;;;18.80;;
77085;SDS011;66014;53.134;18.006;2023-02-28T08:33:12;34.20;;;17.60;;
77085;SDS011;66014;53.134;18.006;2023-02-28T08:35:39;32.40;;;16.10;;
77085;SDS011;66014;53.134;18.006;2023-02-28T08:38:05;27.30;;;14.60;;
77085;SDS011;66014;53.134;18.006;2023-02-28T08:40:34;32.50;;;16.90;;
77085;SDS011;66014;53.134;18.006;2023-02-28T08:43:00;31.80;;;17.30;;
77085;SDS011;66014;53.134;18.006;2023-02-28T08:45:27;32.30;;;18.40;;
77085;SDS011;66014;53.134;18.006;2023-02-28T08:47:54;47.30;;;22.80;;
77085;SDS011;66014;53.134;18.006;2023-02-28T08:50:21;31.50;;;17.50;;
77085;SDS011;66014;53.134;18.006;2023-02-28T08:52:51;32.80;;;18.10;;
77085;SDS011;66014;53.134;18.006;2023-02-28T08:55:18;38.80;;;20.50;;
77085;SDS011;66014;53.134;18.006;2023-02-28T08:57:45;28.30;;;14.30;;
77085;SDS011;66014;53.134;18.006;2023-02-28T09:00:12;20.00;;;9.10;;
77085;SDS011;66014;53.134;18.006;2023-02-28T09:02:40;21.00;;;10.20;;
77085;SDS011;66014;53.134;18.006;2023-02-28T09:05:11;25.10;;;12.80;;
77085;SDS011;66014;53.134;18.006;2023-02-28T09:07:38;25.00;;;13.90;;
77085;SDS011;66014;53.134;18.006;2023-02-28T09:10:05;26.50;;;13.50;;
77085;SDS011;66014;53.134;18.006;2023-02-28T09:12:34;29.30;;;19.10;;
77085;SDS011;66014;53.134;18.006;2023-02-28T09:15:04;23.90;;;12.80;;
77085;SDS011;66014;53.134;18.006;2023-02-28T09:17:31;17.50;;;8.60;;
77085;SDS011;66014;53.134;18.006;2023-02-28T09:19:58;15.60;;;8.20;;
77085;SDS011;66014;53.134;18.006;2023-02-28T09:22:25;20.20;;;9.00;;
77085;SDS011;66014;53.134;18.006;2023-02-28T09:24:51;15.20;;;7.50;;
77085;SDS011;66014;53.134;18.006;2023-02-28T09:27:18;16.50;;;6.90;;
77085;SDS011;66014;53.134;18.006;2023-02-28T09:29:45;12.20;;;6.00;;
77085;SDS011;66014;53.134;18.006;2023-02-28T09:32:11;16.30;;;7.90;;
77085;SDS011;66014;53.134;18.006;2023-02-28T09:34:38;13.20;;;7.10;;
77085;SDS011;66014;53.134;18.006;2023-02-28T09:37:05;12.30;;;5.50;;
77085;SDS011;66014;53.134;18.006;2023-02-28T09:39:31;11.70;;;5.60;;
77085;SDS011;66014;53.134;18.006;2023-02-28T09:41:58;12.80;;;6.60;;
77085;SDS011;66014;53.134;18.006;2023-02-28T09:44:37;15.40;;;7.00;;
77085;SDS011;66014;53.134;18.006;2023-02-28T09:47:09;13.40;;;7.20;;
77085;SDS011;66014;53.134;18.006;2023-02-28T09:49:45;26.90;;;9.10;;
77085;SDS011;66014;53.134;18.006;2023-02-28T09:52:15;16.80;;;8.90;;
77085;SDS011;66014;53.134;18.006;2023-02-28T09:54:45;20.70;;;9.80;;
77085;SDS011;66014;53.134;18.006;2023-02-28T10:00:19;20.80;;;9.00;;
77085;SDS011;66014;53.134;18.006;2023-02-28T10:05:34;16.10;;;7.50;;
77085;SDS011;66014;53.134;18.006;2023-02-28T10:08:08;14.60;;;8.30;;
77085;SDS011;66014;53.134;18.006;2023-02-28T10:10:58;14.50;;;6.80;;
77085;SDS011;66014;53.134;18.006;2023-02-28T10:16:07;15.80;;;7.00;;
77085;SDS011;66014;53.134;18.006;2023-02-28T10:18:42;17.80;;;7.80;;
77085;SDS011;66014;53.134;18.006;2023-02-28T10:21:51;20.50;;;7.60;;
77085;SDS011;66014;53.134;18.006;2023-02-28T10:24:32;46.70;;;31.30;;
77085;SDS011;66014;53.134;18.006;2023-02-28T10:27:23;22.50;;;8.80;;
77085;SDS011;66014;53.134;18.006;2023-02-28T10:30:03;26.50;;;18.10;;
77085;SDS011;66014;53.134;18.006;2023-02-28T10:32:35;20.10;;;9.10;;
77085;SDS011;66014;53.134;18.006;2023-02-28T10:35:10;12.70;;;6.10;;
77085;SDS011;66014;53.134;18.006;2023-02-28T10:37:47;12.70;;;6.40;;
77085;SDS011;66014;53.134;18.006;2023-02-28T10:43:01;16.90;;;7.50;;
77085;SDS011;66014;53.134;18.006;2023-02-28T10:45:32;30.10;;;15.00;;
77085;SDS011;66014;53.134;18.006;2023-02-28T10:50:44;27.20;;;13.30;;
77085;SDS011;66014;53.134;18.006;2023-02-28T10:53:28;13.20;;;7.10;;
77085;SDS011;66014;53.134;18.006;2023-02-28T11:04:53;13.90;;;6.80;;
77085;SDS011;66014;53.134;18.006;2023-02-28T11:07:04;13.30;;;6.90;;
77085;SDS011;66014;53.134;18.006;2023-02-28T11:09:45;23.90;;;9.90;;
77085;SDS011;66014;53.134;18.006;2023-02-28T11:12:58;15.40;;;7.60;;
77085;SDS011;66014;53.134;18.006;2023-02-28T11:15:23;13.80;;;6.30;;
77085;SDS011;66014;53.134;18.006;2023-02-28T11:17:59;14.40;;;5.90;;
77085;SDS011;66014;53.134;18.006;2023-02-28T11:20:28;19.10;;;5.00;;
77085;SDS011;66014;53.134;18.006;2023-02-28T11:22:58;13.80;;;4.50;;
77085;SDS011;66014;53.134;18.006;2023-02-28T11:25:28;11.00;;;4.40;;
77085;SDS011;66014;53.134;18.006;2023-02-28T11:27:59;134.10;;;73.50;;
77085;SDS011;66014;53.134;18.006;2023-02-28T11:33:23;18.50;;;7.90;;
77085;SDS011;66014;53.134;18.006;2023-02-28T11:35:50;11.10;;;6.10;;
77085;SDS011;66014;53.134;18.006;2023-02-28T11:38:18;9.60;;;4.70;;
77085;SDS011;66014;53.134;18.006;2023-02-28T11:46:30;15.70;;;8.00;;
77085;SDS011;66014;53.134;18.006;2023-02-28T11:52:24;14.70;;;7.00;;
77085;SDS011;66014;53.134;18.006;2023-02-28T11:54:54;12.30;;;4.70;;
77085;SDS011;66014;53.134;18.006;2023-02-28T11:57:28;10.20;;;4.50;;
77085;SDS011;66014;53.134;18.006;2023-02-28T12:05:49;12.10;;;4.70;;
77085;SDS011;66014;53.134;18.006;2023-02-28T12:12:05;11.10;;;4.90;;
77085;SDS011;66014;53.134;18.006;2023-02-28T12:24:50;8.60;;;4.80;;
77085;SDS011;66014;53.134;18.006;2023-02-28T12:27:39;13.50;;;6.30;;
77085;SDS011;66014;53.134;18.006;2023-02-28T12:32:57;8.90;;;3.60;;
77085;SDS011;66014;53.134;18.006;2023-02-28T12:35:35;11.80;;;6.00;;
77085;SDS011;66014;53.134;18.006;2023-02-28T12:38:06;9.00;;;5.10;;
77085;SDS011;66014;53.134;18.006;2023-02-28T12:40:56;8.20;;;3.80;;
77085;SDS011;66014;53.134;18.006;2023-02-28T12:43:31;14.50;;;7.10;;
77085;SDS011;66014;53.134;18.006;2023-02-28T12:46:11;26.10;;;20.50;;
77085;SDS011;66014;53.134;18.006;2023-02-28T12:48:49;9.30;;;5.80;;
77085;SDS011;66014;53.134;18.006;2023-02-28T12:51:22;9.80;;;4.10;;
77085;SDS011;66014;53.134;18.006;2023-02-28T12:53:57;7.50;;;3.40;;
77085;SDS011;66014;53.134;18.006;2023-02-28T12:59:27;9.20;;;3.60;;
77085;SDS011;66014;53.134;18.006;2023-02-28T13:10:43;8.40;;;4.00;;
77085;SDS011;66014;53.134;18.006;2023-02-28T13:13:16;9.40;;;4.50;;
77085;SDS011;66014;53.134;18.006;2023-02-28T13:16:02;12.20;;;4.30;;
77085;SDS011;66014;53.134;18.006;2023-02-28T13:21:04;6.50;;;2.80;;
77085;SDS011;66014;53.134;18.006;2023-02-28T13:23:37;7.10;;;3.40;;
77085;SDS011;66014;53.134;18.006;2023-02-28T13:26:04;12.50;;;5.70;;
77085;SDS011;66014;53.134;18.006;2023-02-28T13:31:26;11.20;;;5.20;;
77085;SDS011;66014;53.134;18.006;2023-02-28T13:36:29;10.00;;;4.60;;
77085;SDS011;66014;53.134;18.006;2023-02-28T13:39:01;9.00;;;4.90;;
77085;SDS011;66014;53.134;18.006;2023-02-28T13:41:40;12.90;;;4.20;;
77085;SDS011;66014;53.134;18.006;2023-02-28T13:44:09;8.20;;;3.50;;
77085;SDS011;66014;53.134;18.006;2023-02-28T14:03:26;16.30;;;5.50;;
77085;SDS011;66014;53.134;18.006;2023-02-28T14:06:08;8.70;;;4.60;;
77085;SDS011;66014;53.134;18.006;2023-02-28T14:08:54;8.60;;;3.50;;
77085;SDS011;66014;53.134;18.006;2023-02-28T14:11:25;9.70;;;4.90;;
77085;SDS011;66014;53.134;18.006;2023-02-28T14:14:04;9.20;;;3.90;;
77085;SDS011;66014;53.134;18.006;2023-02-28T14:19:23;13.30;;;5.00;;
77085;SDS011;66014;53.134;18.006;2023-02-28T14:21:59;21.00;;;7.90;;
77085;SDS011;66014;53.134;18.006;2023-02-28T14:24:40;12.60;;;5.40;;
77085;SDS011;66014;53.134;18.006;2023-02-28T14:30:20;14.30;;;6.60;;
77085;SDS011;66014;53.134;18.006;2023-02-28T14:36:21;17.60;;;7.40;;
77085;SDS011;66014;53.134;18.006;2023-02-28T14:38:53;8.80;;;4.90;;
77085;SDS011;66014;53.134;18.006;2023-02-28T14:41:31;9.40;;;4.70;;
77085;SDS011;66014;53.134;18.006;2023-02-28T14:44:13;11.10;;;6.20;;
77085;SDS011;66014;53.134;18.006;2023-02-28T14:46:40;31.20;;;11.70;;
77085;SDS011;66014;53.134;18.006;2023-02-28T14:49:17;13.10;;;6.30;;
77085;SDS011;66014;53.134;18.006;2023-02-28T14:51:44;15.60;;;5.80;;
77085;SDS011;66014;53.134;18.006;2023-02-28T14:54:14;14.20;;;6.20;;
77085;SDS011;66014;53.134;18.006;2023-02-28T14:56:42;18.90;;;5.90;;
77085;SDS011;66014;53.134;18.006;2023-02-28T14:59:26;30.80;;;10.80;;
77085;SDS011;66014;53.134;18.006;2023-02-28T15:02:20;28.80;;;12.50;;
77085;SDS011;66014;53.134;18.006;2023-02-28T15:04:52;30.80;;;13.90;;
77085;SDS011;66014;53.134;18.006;2023-02-28T15:07:22;33.60;;;13.30;;
77085;SDS011;66014;53.134;18.006;2023-02-28T15:12:41;18.40;;;8.80;;
77085;SDS011;66014;53.134;18.006;2023-02-28T15:15:16;19.10;;;7.70;;
77085;SDS011;66014;53.134;18.006;2023-02-28T15:17:44;16.50;;;7.40;;
77085;SDS011;66014;53.134;18.006;2023-02-28T15:20:14;19.70;;;7.90;;
77085;SDS011;66014;53.134;18.006;2023-02-28T15:22:43;23.30;;;7.30;;
77085;SDS011;66014;53.134;18.006;2023-02-28T15:25:13;14.50;;;6.50;;
77085;SDS011;66014;53.134;18.006;2023-02-28T15:27:45;10.90;;;5.70;;
77085;SDS011;66014;53.134;18.006;2023-02-28T15:30:17;16.90;;;4.90;;
77085;SDS011;66014;53.134;18.006;2023-02-28T15:33:05;8.70;;;4.40;;
77085;SDS011;66014;53.134;18.006;2023-02-28T15:35:32;10.90;;;6.00;;
77085;SDS011;66014;53.134;18.006;2023-02-28T15:38:04;10.00;;;4.60;;
77085;SDS011;66014;53.134;18.006;2023-02-28T15:40:52;13.70;;;6.00;;
77085;SDS011;66014;53.134;18.006;2023-02-28T15:43:27;17.70;;;8.10;;
77085;SDS011;66014;53.134;18.006;2023-02-28T15:45:59;18.90;;;10.10;;
77085;SDS011;66014;53.134;18.006;2023-02-28T15:48:27;15.30;;;6.60;;
77085;SDS011;66014;53.134;18.006;2023-02-28T15:51:06;11.70;;;5.70;;
77085;SDS011;66014;53.134;18.006;2023-02-28T15:53:37;27.20;;;17.60;;
77085;SDS011;66014;53.134;18.006;2023-02-28T15:56:22;16.90;;;8.80;;
77085;SDS011;66014;53.134;18.006;2023-02-28T15:58:58;22.10;;;11.00;;
77085;SDS011;66014;53.134;18.006;2023-02-28T16:01:30;22.10;;;14.80;;
77085;SDS011;66014;53.134;18.006;2023-02-28T16:04:00;22.10;;;12.20;;
77085;SDS011;66014;53.134;18.006;2023-02-28T16:06:39;21.00;;;9.80;;
77085;SDS011;66014;53.134;18.006;2023-02-28T16:09:14;18.20;;;10.30;;
77085;SDS011;66014;53.134;18.006;2023-02-28T16:11:43;31.70;;;12.00;;
77085;SDS011;66014;53.134;18.006;2023-02-28T16:14:13;35.80;;;12.80;;
77085;SDS011;66014;53.134;18.006;2023-02-28T16:16:46;97.90;;;28.20;;
77085;SDS011;66014;53.134;18.006;2023-02-28T16:19:16;38.40;;;16.10;;
77085;SDS011;66014;53.134;18.006;2023-02-28T16:21:43;38.30;;;17.30;;
77085;SDS011;66014;53.134;18.006;2023-02-28T16:24:10;37.20;;;16.80;;
77085;SDS011;66014;53.134;18.006;2023-02-28T16:26:36;41.80;;;19.30;;
77085;SDS011;66014;53.134;18.006;2023-02-28T16:29:09;25.00;;;13.40;;
77085;SDS011;66014;53.134;18.006;2023-02-28T16:31:45;41.10;;;17.80;;
77085;SDS011;66014;53.134;18.006;2023-02-28T16:34:12;42.30;;;17.40;;
77085;SDS011;66014;53.134;18.006;2023-02-28T16:36:47;57.10;;;22.80;;
77085;SDS011;66014;53.134;18.006;2023-02-28T16:39:17;63.90;;;27.10;;
77085;SDS011;66014;53.134;18.006;2023-02-28T16:41:47;67.70;;;28.20;;
77085;SDS011;66014;53.134;18.006;2023-02-28T16:44:24;68.50;;;26.40;;
77085;SDS011;66014;53.134;18.006;2023-02-28T16:47:00;48.80;;;21.40;;
77085;SDS011;66014;53.134;18.006;2023-02-28T16:49:28;49.90;;;20.10;;
77085;SDS011;66014;53.134;18.006;2023-02-28T16:51:56;50.40;;;18.60;;
77085;SDS011;66014;53.134;18.006;2023-02-28T16:54:22;40.70;;;19.50;;
77085;SDS011;66014;53.134;18.006;2023-02-28T16:56:49;40.60;;;15.20;;
77085;SDS011;66014;53.134;18.006;2023-02-28T16:59:18;56.30;;;21.80;;
77085;SDS011;66014;53.134;18.006;2023-02-28T17:01:49;51.30;;;23.00;;
77085;SDS011;66014;53.134;18.006;2023-02-28T17:04:16;64.50;;;25.40;;
77085;SDS011;66014;53.134;18.006;2023-02-28T17:06:50;49.80;;;21.10;;